Latest Weather Observations for Mount Crawford

IDS60901

Issued at 11:01 am CDT Friday 27 February 2015 (issued every 10 minutes, with the page automatically refreshed every 10 minutes)

About weather observations | Map of Adelaide area stations | Latest observations for Adelaide area | Other Formats
Station Details ID: 023878 Name: MT CRAWFORD AWS Lat: -34.73 Lon: 138.93 Height: 525.0 m
Data from the previous 72 hours. | See also: Recent months at Mount Crawford
Date/Time
CDT
Tmp

°C
App
Tmp
°C
Dew
Point
°C
Rel
Hum
%
Delta-T

°C
Wind Press
QNH
hPa
Press
MSL
hPa
Rain
since
9 am
mm
Dir
 
Spd
km/h
Gust
km/h
Spd
kts
Gust
kts
27/11:00am 27.4 25.7 9.7 33 10.1 NNE 9 19 5 10 1012.1 1009.8 0.0
27/10:30am 26.0 24.2 9.4 35 9.3 NE 9 15 5 8 1012.2 1009.9 0.0
27/10:00am 24.3 21.9 8.7 37 8.6 ENE 11 13 6 7 1012.1 1009.8 0.0
27/09:30am 22.3 20.0 9.1 43 7.2 ENE 11 15 6 8 1012.0 1009.7 0.0
27/09:00am 20.0 17.6 8.7 48 6.1 E 11 15 6 8 1012.1 1009.8 0.0
27/08:30am 19.0 16.2 8.4 50 5.6 E 13 17 7 9 1012.2 1009.9 0.0
27/08:00am 18.5 15.5 7.6 49 5.7 ENE 13 22 7 12 1012.1 1009.8 0.0
27/07:30am 16.6 12.9 7.8 56 4.6 E 17 22 9 12 1011.6 1009.3 0.0
27/07:00am 15.2 12.0 8.4 64 3.5 E 15 19 8 10 1011.2 1008.9 0.0
27/06:30am 15.2 11.8 7.7 61 3.8 E 15 19 8 10 1011.2 1008.9 0.0
27/06:00am 15.7 11.7 6.7 55 4.5 E 17 19 9 10 1011.1 1008.8 0.0
27/05:30am 16.1 11.6 6.3 52 4.9 E 19 22 10 12 1010.6 1008.3 0.0
27/05:00am 16.6 12.5 6.1 50 5.3 ESE 17 19 9 10 1010.5 1008.2 0.0
27/04:30am 16.8 12.6 5.7 48 5.5 ESE 17 20 9 11 1010.6 1008.3 0.0
27/04:00am 16.6 12.4 5.9 49 5.3 ESE 17 19 9 10 1011.1 1008.8 0.0
27/03:30am 16.9 12.7 5.8 48 5.5 ESE 17 22 9 12 1011.2 1008.9 0.0
27/03:00am 17.6 12.5 5.9 46 5.9 SE 22 30 12 16 1011.4 1009.1 0.0
27/02:30am 18.1 13.9 7.5 50 5.5 SE 19 24 10 13 1011.7 1009.4 0.0
27/02:00am 19.6 15.6 8.9 50 5.8 SSE 20 24 11 13 1011.8 1009.5 0.0
27/01:30am 19.6 16.1 8.9 50 5.8 SSE 17 20 9 11 1012.0 1009.7 0.0
27/01:00am 20.1 16.4 9.4 50 5.8 SSE 19 22 10 12 1012.2 1009.9 0.0
27/12:30am 20.2 16.3 9.5 50 5.8 SSE 20 24 11 13 1012.6 1010.4 0.0
27/12:00am 20.5 16.8 10.0 51 5.8 SSE 20 24 11 13 1012.9 1010.7 0.0
 
Date/Time
CDT
Tmp

°C
App
Tmp
°C
Dew
Point
°C
Rel
Hum
%
Delta-T

°C
Wind Press
QNH
hPa
Press
MSL
hPa
Rain
since
9 am
mm
Dir
 
Spd
km/h
Gust
km/h
Spd
kts
Gust
kts
26/11:30pm 20.8 17.0 9.7 49 6.1 SSE 20 22 11 12 1013.2 1010.9 0.0
26/11:00pm 21.5 17.7 9.1 45 6.8 SSE 19 22 10 12 1013.3 1011.0 0.0
26/10:30pm 22.1 18.3 8.9 43 7.2 S 19 22 10 12 1013.4 1011.1 0.0
26/10:00pm 21.9 18.4 8.8 43 7.1 SSE 17 20 9 11 1013.2 1010.9 0.0
26/09:30pm 21.7 19.2 8.2 42 7.3 SE 11 13 6 7 1013.1 1010.8 0.0
26/09:00pm 22.4 19.8 7.8 39 7.8 SE 11 15 6 8 1012.9 1010.7 0.0
26/08:30pm 23.2 20.5 7.3 36 8.5 SE 11 15 6 8 1012.8 1010.6 0.0
26/08:00pm 24.2 21.9 7.4 34 9.0 SE 9 15 5 8 1012.6 1010.4 0.0
26/07:30pm 25.7 22.6 7.3 31 10.0 SE 13 19 7 10 1012.4 1010.1 0.0
26/07:00pm 27.2 24.2 7.6 29 10.7 SSE 13 17 7 9 1012.0 1009.7 0.0
26/06:30pm 27.4 24.3 8.8 31 10.4 SSE 15 24 8 13 1011.6 1009.3 0.0
26/06:00pm 29.4 25.5 8.5 27 11.8 WSW 19 28 10 15 1011.5 1009.2 0.0
26/05:30pm 29.5 25.8 8.0 26 12.0 SW 17 24 9 13 1011.4 1009.1 0.0
26/05:00pm 29.9 25.6 7.7 25 12.4 WSW 20 32 11 17 1011.4 1009.1 0.0
26/04:30pm 30.2 25.9 8.0 25 12.5 W 20 32 11 17 1011.2 1008.9 0.0
26/04:00pm 29.1 24.9 8.2 27 11.7 WNW 20 28 11 15 1011.5 1009.2 0.0
26/03:30pm 30.5 27.1 7.7 24 12.7 WNW 15 24 8 13 1011.7 1009.4 0.0
26/03:00pm 29.4 25.0 6.7 24 12.4 W 19 28 10 15 1011.9 1009.6 0.0
26/02:30pm 29.9 25.6 5.2 21 13.2 W 17 28 9 15 1012.2 1009.9 0.0
26/02:00pm 29.9 25.7 3.8 19 13.6 WNW 15 20 8 11 1012.6 1010.4 0.0
26/01:30pm 28.5 25.7 3.4 20 12.9 WNW 7 19 4 10 1012.8 1010.6 0.0
26/01:00pm 27.4 23.7 2.5 20 12.5 W 11 19 6 10 1013.3 1011.0 0.0
26/12:30pm 27.1 22.8 0.8 18 12.8 WNW 13 20 7 11 1013.7 1011.4 0.0
26/12:00pm 26.7 22.4 1.2 19 12.5 WNW 13 17 7 9 1014.0 1011.7 0.0
26/11:30am 24.9 20.9 -2.6 16 12.4 NW 9 17 5 9 1014.2 1012.0 0.0
26/11:00am 24.7 20.0 -4.6 14 12.7 SW 11 17 6 9 1014.5 1012.3 0.0
26/10:30am 23.2 18.8 -2.4 18 11.4 WSW 11 17 6 9 1014.5 1012.3 0.0
26/10:00am 22.4 18.4 -2.3 19 10.9 WSW 9 11 5 6 1014.3 1012.1 0.0
26/09:30am 22.3 19.0 -1.1 21 10.6 ENE 6 11 3 6 1014.1 1011.8 0.0
26/09:00am 20.7 16.6 -3.0 20 10.2 S 9 15 5 8 1014.0 1011.7 0.0
26/08:30am 19.7 15.0 -5.3 18 10.2 S 11 17 6 9 1013.6 1011.3 0.0
26/08:00am 19.6 13.7 -5.3 18 10.1 S 17 19 9 10 1013.1 1010.8 0.0
26/07:30am 18.5 12.1 -11.4 12 10.6 SSE 17 19 9 10 1012.9 1010.7 0.0
26/07:00am 18.0 11.1 -14.0 10 10.7 SSE 19 22 10 12 1012.6 1010.4 0.0
26/06:30am 18.8 12.3 -7.5 16 10.2 SSE 19 20 10 11 1012.0 1009.7 0.0
26/06:00am 18.0 11.4 -9.0 15 10.0 SSE 19 20 10 11 1011.9 1009.6 0.0
26/05:30am 15.8 9.1 -0.8 32 7.2 S 24 28 13 15 1012.0 1009.7 0.0
26/05:00am 15.8 10.4 4.5 47 5.4 SSE 22 30 12 16 1011.7 1009.4 0.0
26/04:30am 16.1 10.9 2.2 39 6.4 SSE 19 28 10 15 1012.1 1009.8 0.0
26/04:00am 15.7 10.6 3.2 43 5.9 SSE 19 24 10 13 1011.7 1009.4 0.0
26/03:30am 15.8 10.6 2.2 40 6.3 SSE 19 24 10 13 1011.9 1009.6 0.0
26/03:00am 16.9 10.9 3.6 41 6.3 S 24 30 13 16 1012.2 1009.9 0.0
26/02:30am 16.6 10.8 2.2 38 6.7 SSE 22 26 12 14 1012.1 1009.8 0.0
26/02:00am 16.7 10.7 0.8 34 7.1 SE 22 26 12 14 1012.1 1009.8 0.0
26/01:30am 17.2 11.6 1.2 34 7.3 SSE 20 28 11 15 1012.8 1010.6 0.0
26/01:00am 16.9 10.9 1.0 34 7.2 SSE 22 30 12 16 1013.1 1010.8 0.0
26/12:30am 17.8 12.5 -0.9 28 8.2 SSE 17 24 9 13 1013.3 1011.0 0.0
26/12:00am 17.5 12.2 5.1 44 6.1 S 22 28 12 15 1013.5 1011.2 0.0
 
Date/Time
CDT
Tmp

°C
App
Tmp
°C
Dew
Point
°C
Rel
Hum
%
Delta-T

°C
Wind Press
QNH
hPa
Press
MSL
hPa
Rain
since
9 am
mm
Dir
 
Spd
km/h
Gust
km/h
Spd
kts
Gust
kts
25/11:30pm 15.6 11.5 6.3 54 4.6 S 17 20 9 11 1014.2 1012.0 0.0
25/11:00pm 16.1 12.5 6.8 54 4.7 S 15 20 8 11 1014.3 1012.1 0.0
25/10:30pm 16.7 12.7 6.8 52 5.0 S 17 20 9 11 1014.4 1012.2 0.0
25/10:00pm 17.1 13.1 6.6 50 5.3 SSE 17 19 9 10 1014.4 1012.2 0.0
25/09:30pm 17.2 13.2 6.7 50 5.3 SSE 17 19 9 10 1014.4 1012.2 0.0
25/09:00pm 17.8 14.6 6.7 48 5.7 SE 13 15 7 8 1014.3 1012.1 0.0
25/08:30pm 18.9 15.6 6.4 44 6.4 SE 13 17 7 9 1014.0 1011.7 0.0
25/08:00pm 21.1 17.8 2.4 29 9.0 SW 9 11 5 6 1013.9 1011.6 0.0
25/07:30pm 22.9 18.8 0.1 22 10.6 WSW 11 17 6 9 1013.7 1011.4 0.0
25/07:00pm 24.6 19.7 -0.5 19 11.7 W 15 22 8 12 1013.5 1011.2 0.0
25/06:30pm 25.3 21.3 2.7 23 11.2 WSW 13 19 7 10 1013.3 1011.0 0.0
25/06:00pm 25.2 19.9 2.0 22 11.4 W 19 24 10 13 1013.1 1010.8 0.0
25/05:30pm 26.1 21.6 4.0 24 11.3 W 17 24 9 13 1013.2 1010.9 0.0
25/05:00pm 25.9 20.5 2.6 22 11.6 W 20 28 11 15 1013.3 1011.0 0.0
25/04:30pm 25.2 19.9 3.2 24 11.0 WSW 20 32 11 17 1013.6 1011.3 0.0
25/04:00pm 26.2 21.8 2.8 22 11.7 WNW 15 26 8 14 1013.7 1011.4 0.0
25/03:30pm 25.8 20.7 3.1 23 11.4 W 19 28 10 15 1013.8 1011.5 0.0
25/03:00pm 26.0 22.0 2.7 22 11.6 WNW 13 20 7 11 1014.1 1011.8 0.0
25/02:30pm 25.9 22.8 3.8 24 11.3 NNE 9 24 5 13 1014.7 1012.5 0.0
25/02:00pm 24.0 20.1 3.3 26 10.3 WNW 13 20 7 11 1015.2 1012.9 0.0
25/01:30pm 24.2 20.9 4.6 28 10.0 W 11 17 6 9 1015.6 1013.3 0.0
25/01:00pm 23.3 19.2 2.2 25 10.3 W 13 19 7 10 1016.3 1014.1 0.0
25/12:30pm 22.2 18.9 4.7 32 8.8 SSW 11 20 6 11 1016.7 1014.5 0.0
25/12:00pm 22.3 20.1 6.1 35 8.4 ENE 7 9 4 5 1016.9 1014.7 0.0
25/11:30am 20.0 16.7 4.5 36 7.7 W 11 15 6 8 1017.5 1015.2 0.0
25/11:00am 19.1 16.5 6.2 43 6.6 SE 9 15 5 8 1017.9 1015.7 0.0
25/10:30am 18.1 14.5 6.6 47 5.9 ESE 15 19 8 10 1017.7 1015.5 0.0
25/10:00am 16.7 12.9 7.6 55 4.7 E 17 24 9 13 1017.5 1015.2 0.0
25/09:30am 14.8 9.9 7.1 60 3.9 E 22 28 12 15 1017.5 1015.2 0.0
25/09:00am 13.0 8.2 7.2 68 2.9 E 22 30 12 16 1017.6 1015.4 0.0
25/08:30am 11.3 6.0 6.8 74 2.2 ESE 24 33 13 18 1017.3 1015.0 0.0
25/08:00am 10.0 4.3 6.5 79 1.7 ESE 26 32 14 17 1017.6 1015.4 0.0
25/07:30am 9.4 2.9 6.5 82 1.4 ESE 30 37 16 20 1017.3 1015.0 0.0
25/07:00am 8.9 2.7 6.3 84 1.2 SE 28 37 15 20 1016.9 1014.7 0.0
25/06:30am 9.0 2.4 6.1 82 1.4 SE 30 39 16 21 1016.9 1014.7 0.0
25/06:00am 9.2 2.2 6.1 81 1.5 SE 32 39 17 21 1016.6 1014.4 0.0
25/05:30am 9.3 2.7 6.0 80 1.6 SE 30 39 16 21 1016.6 1014.4 0.0
25/05:00am 9.5 3.3 6.2 80 1.6 SE 28 37 15 20 1016.5 1014.3 0.0
25/04:30am 9.7 3.2 6.4 80 1.6 SE 30 37 16 20 1016.4 1014.2 0.0
25/04:00am 10.0 3.2 6.7 80 1.6 SE 32 41 17 22 1016.7 1014.5 0.0
25/03:30am 10.2 3.5 7.3 82 1.4 SE 32 41 17 22 1016.9 1014.7 0.0
25/03:00am 10.4 4.2 7.8 84 1.3 SE 30 39 16 21 1017.6 1015.4 0.0
25/02:30am 10.5 5.6 8.3 86 1.1 SSE 24 33 13 18 1017.8 1015.6 0.0
25/02:00am 10.7 5.9 8.8 88 1.0 SSE 24 35 13 19 1017.8 1015.6 0.0
25/01:30am 10.9 6.1 8.8 87 1.1 SE 24 35 13 19 1017.9 1015.7 0.0
25/01:00am 10.9 6.1 8.8 87 1.1 SE 24 35 13 19 1017.9 1015.7 0.0
25/12:30am 11.0 5.5 9.1 88 1.0 SE 28 37 15 20 1018.2 1016.0 0.0
25/12:00am 11.1 5.7 9.4 89 0.9 SSE 28 37 15 20 1018.6 1016.4 0.0
 
Date/Time
CDT
Tmp

°C
App
Tmp
°C
Dew
Point
°C
Rel
Hum
%
Delta-T

°C
Wind Press
QNH
hPa
Press
MSL
hPa
Rain
since
9 am
mm
Dir
 
Spd
km/h
Gust
km/h
Spd
kts
Gust
kts
24/11:30pm 11.1 5.6 9.2 88 1.0 SSE 28 39 15 21 1018.9 1016.7 0.0
24/11:00pm 11.1 5.5 8.8 86 1.2 SSE 28 43 15 23 1019.2 1016.9 0.0
24/10:30pm 11.2 5.6 8.8 85 1.2 SSE 28 39 15 21 1019.4 1017.2 0.0
24/10:00pm 11.1 5.5 8.8 86 1.2 SSE 28 41 15 22 1019.6 1017.4 0.0
24/09:30pm 11.4 5.4 8.8 84 1.3 SSE 30 39 16 21 1019.4 1017.2 0.0
24/09:00pm 11.7 6.1 8.7 82 1.5 SSE 28 41 15 22 1019.3 1017.1 0.0
24/08:30pm 12.3 6.0 8.8 79 1.8 SSE 32 43 17 23 1019.4 1017.2 0.0
24/08:00pm 13.0 7.3 8.3 73 2.4 SSE 28 41 15 22 1019.3 1017.1 0.0
24/07:30pm 14.1 9.1 7.9 66 3.2 SSE 24 39 13 21 1019.3 1017.1 0.0
24/07:00pm 15.7 10.2 7.5 58 4.2 SSE 26 35 14 19 1018.8 1016.6 0.0
24/06:30pm 16.9 12.3 6.4 50 5.3 SSE 20 35 11 19 1018.8 1016.6 0.0
24/06:00pm 17.8 12.7 6.0 46 5.9 SE 22 39 12 21 1018.8 1016.6 0.0
24/05:30pm 18.6 13.1 5.8 43 6.4 SSE 24 35 13 19 1018.8 1016.6 0.0
24/05:00pm 18.8 13.0 4.6 39 7.0 SE 24 35 13 19 1018.9 1016.7 0.0
24/04:30pm 20.0 13.8 4.5 36 7.7 SSE 26 39 14 21 1018.8 1016.6 0.0
24/04:00pm 19.7 13.9 4.2 36 7.6 SSE 24 35 13 19 1019.2 1016.9 0.0
24/03:30pm 19.7 13.9 4.2 36 7.6 SE 24 37 13 20 1019.4 1017.2 0.0
24/03:00pm 20.5 15.2 2.8 31 8.5 SSE 20 33 11 18 1019.6 1017.4 0.0
24/02:30pm 20.4 14.2 2.3 30 8.6 ESE 24 37 13 20 1019.7 1017.5 0.0
24/02:00pm 19.8 13.9 1.7 30 8.5 SE 22 39 12 21 1019.8 1017.6 0.0
24/01:30pm 19.3 13.0 1.3 30 8.3 SE 24 37 13 20 1020.0 1017.8 0.0
24/01:00pm 18.2 11.9 1.3 32 7.8 ESE 24 37 13 20 1020.4 1018.2 0.0
24/12:30pm 17.9 10.7 0.6 31 7.8 ESE 28 43 15 23 1020.6 1018.4 0.0
24/12:00pm 16.2 9.5 1.5 37 6.7 SE 26 39 14 21 1020.5 1018.3 0.0
24/11:30am 15.9 8.3 2.7 41 6.1 SE 32 44 17 24 1020.8 1018.6 0.0

Latest Capital City Observations: Canberra | Sydney | Melbourne | Brisbane | Adelaide | Perth | Hobart | Darwin

Other Formats:

Comma delimited format used in spreadsheet applications
http://www.bom.gov.au/fwo/IDS60901/IDS60901.94678.axf

JavaScript Object Notation format (JSON) in row-major order
http://www.bom.gov.au/fwo/IDS60901/IDS60901.94678.json